sensor_id;sensor_type;location;lat;lon;timestamp;P1;durP1;ratioP1;P2;durP2;ratioP2
41711;SDS011;27399;51.516;13.670;2023-04-01T00:00:53;5.38;;;1.10;;
41711;SDS011;27399;51.516;13.670;2023-04-01T00:03:20;6.55;;;1.42;;
41711;SDS011;27399;51.516;13.670;2023-04-01T00:05:46;3.10;;;0.93;;
41711;SDS011;27399;51.516;13.670;2023-04-01T00:08:12;4.80;;;1.02;;
41711;SDS011;27399;51.516;13.670;2023-04-01T00:10:38;3.17;;;1.10;;
41711;SDS011;27399;51.516;13.670;2023-04-01T00:13:04;3.55;;;1.15;;
41711;SDS011;27399;51.516;13.670;2023-04-01T00:15:30;3.88;;;0.98;;
41711;SDS011;27399;51.516;13.670;2023-04-01T00:17:56;4.85;;;0.80;;
41711;SDS011;27399;51.516;13.670;2023-04-01T00:20:22;4.40;;;1.10;;
41711;SDS011;27399;51.516;13.670;2023-04-01T00:22:48;3.80;;;1.35;;
41711;SDS011;27399;51.516;13.670;2023-04-01T00:25:14;2.80;;;1.38;;
41711;SDS011;27399;51.516;13.670;2023-04-01T00:27:40;2.80;;;0.88;;
41711;SDS011;27399;51.516;13.670;2023-04-01T00:30:06;1.42;;;0.80;;
41711;SDS011;27399;51.516;13.670;2023-04-01T00:32:33;3.70;;;0.90;;
41711;SDS011;27399;51.516;13.670;2023-04-01T00:34:59;3.28;;;0.80;;
41711;SDS011;27399;51.516;13.670;2023-04-01T00:37:25;5.25;;;0.88;;
41711;SDS011;27399;51.516;13.670;2023-04-01T00:39:51;2.47;;;0.90;;
41711;SDS011;27399;51.516;13.670;2023-04-01T00:42:17;2.40;;;0.80;;
41711;SDS011;27399;51.516;13.670;2023-04-01T00:44:45;3.08;;;0.90;;
41711;SDS011;27399;51.516;13.670;2023-04-01T00:47:15;3.60;;;0.85;;
41711;SDS011;27399;51.516;13.670;2023-04-01T00:49:42;5.22;;;1.13;;
41711;SDS011;27399;51.516;13.670;2023-04-01T00:52:11;3.83;;;1.00;;
41711;SDS011;27399;51.516;13.670;2023-04-01T00:54:40;2.55;;;0.70;;
41711;SDS011;27399;51.516;13.670;2023-04-01T00:57:19;3.22;;;0.90;;
41711;SDS011;27399;51.516;13.670;2023-04-01T01:00:06;4.18;;;0.70;;
41711;SDS011;27399;51.516;13.670;2023-04-01T01:02:36;4.35;;;0.85;;
41711;SDS011;27399;51.516;13.670;2023-04-01T01:05:02;2.83;;;0.70;;
41711;SDS011;27399;51.516;13.670;2023-04-01T01:12:44;4.82;;;0.90;;
41711;SDS011;27399;51.516;13.670;2023-04-01T01:15:20;3.08;;;0.88;;
41711;SDS011;27399;51.516;13.670;2023-04-01T01:17:53;3.92;;;0.93;;
41711;SDS011;27399;51.516;13.670;2023-04-01T01:20:42;2.15;;;0.70;;
41711;SDS011;27399;51.516;13.670;2023-04-01T01:29:11;3.53;;;0.90;;
41711;SDS011;27399;51.516;13.670;2023-04-01T01:34:54;5.03;;;1.05;;
41711;SDS011;27399;51.516;13.670;2023-04-01T01:40:07;2.88;;;0.90;;
41711;SDS011;27399;51.516;13.670;2023-04-01T01:42:37;1.95;;;0.70;;
41711;SDS011;27399;51.516;13.670;2023-04-01T01:45:05;2.08;;;1.10;;
41711;SDS011;27399;51.516;13.670;2023-04-01T01:47:33;3.80;;;0.70;;
41711;SDS011;27399;51.516;13.670;2023-04-01T01:50:00;2.28;;;1.10;;
41711;SDS011;27399;51.516;13.670;2023-04-01T01:52:28;4.03;;;0.70;;
41711;SDS011;27399;51.516;13.670;2023-04-01T01:54:55;2.53;;;1.02;;
41711;SDS011;27399;51.516;13.670;2023-04-01T01:57:26;2.45;;;0.90;;
41711;SDS011;27399;51.516;13.670;2023-04-01T01:59:58;2.67;;;1.05;;
41711;SDS011;27399;51.516;13.670;2023-04-01T02:02:28;2.88;;;0.90;;
41711;SDS011;27399;51.516;13.670;2023-04-01T02:04:56;3.60;;;0.80;;
41711;SDS011;27399;51.516;13.670;2023-04-01T02:07:27;1.88;;;0.80;;
41711;SDS011;27399;51.516;13.670;2023-04-01T02:09:58;4.80;;;1.02;;
41711;SDS011;27399;51.516;13.670;2023-04-01T02:12:24;2.65;;;0.85;;
41711;SDS011;27399;51.516;13.670;2023-04-01T02:19:50;2.38;;;1.08;;
41711;SDS011;27399;51.516;13.670;2023-04-01T02:22:45;3.03;;;0.70;;
41711;SDS011;27399;51.516;13.670;2023-04-01T02:27:43;2.67;;;1.05;;
41711;SDS011;27399;51.516;13.670;2023-04-01T02:30:14;2.60;;;0.77;;
41711;SDS011;27399;51.516;13.670;2023-04-01T02:32:41;4.93;;;1.13;;
41711;SDS011;27399;51.516;13.670;2023-04-01T02:35:11;5.22;;;1.40;;
41711;SDS011;27399;51.516;13.670;2023-04-01T02:37:40;2.80;;;0.85;;
41711;SDS011;27399;51.516;13.670;2023-04-01T02:40:08;3.83;;;1.02;;
41711;SDS011;27399;51.516;13.670;2023-04-01T02:42:36;2.53;;;1.00;;
41711;SDS011;27399;51.516;13.670;2023-04-01T02:45:02;5.85;;;0.88;;
41711;SDS011;27399;51.516;13.670;2023-04-01T02:47:28;2.45;;;1.00;;
41711;SDS011;27399;51.516;13.670;2023-04-01T02:49:54;3.08;;;0.70;;
41711;SDS011;27399;51.516;13.670;2023-04-01T02:52:29;7.70;;;1.10;;
41711;SDS011;27399;51.516;13.670;2023-04-01T02:54:55;5.72;;;1.02;;
41711;SDS011;27399;51.516;13.670;2023-04-01T02:57:22;3.53;;;0.88;;
41711;SDS011;27399;51.516;13.670;2023-04-01T02:59:48;2.28;;;0.75;;
41711;SDS011;27399;51.516;13.670;2023-04-01T03:02:14;5.47;;;1.00;;
41711;SDS011;27399;51.516;13.670;2023-04-01T03:04:40;3.35;;;1.27;;
41711;SDS011;27399;51.516;13.670;2023-04-01T03:07:06;5.75;;;1.23;;
41711;SDS011;27399;51.516;13.670;2023-04-01T03:09:32;2.38;;;1.00;;
41711;SDS011;27399;51.516;13.670;2023-04-01T03:11:57;7.63;;;1.20;;
41711;SDS011;27399;51.516;13.670;2023-04-01T03:14:23;1.77;;;0.93;;
41711;SDS011;27399;51.516;13.670;2023-04-01T03:16:49;3.38;;;1.05;;
41711;SDS011;27399;51.516;13.670;2023-04-01T03:19:14;5.40;;;1.15;;
41711;SDS011;27399;51.516;13.670;2023-04-01T03:21:40;5.13;;;0.98;;
41711;SDS011;27399;51.516;13.670;2023-04-01T03:24:06;3.35;;;1.00;;
41711;SDS011;27399;51.516;13.670;2023-04-01T03:26:32;4.28;;;0.85;;
41711;SDS011;27399;51.516;13.670;2023-04-01T03:28:58;4.25;;;1.05;;
41711;SDS011;27399;51.516;13.670;2023-04-01T03:31:24;2.88;;;1.25;;
41711;SDS011;27399;51.516;13.670;2023-04-01T03:33:50;5.57;;;1.10;;
41711;SDS011;27399;51.516;13.670;2023-04-01T03:36:16;2.33;;;0.90;;
41711;SDS011;27399;51.516;13.670;2023-04-01T03:38:42;4.20;;;1.00;;
41711;SDS011;27399;51.516;13.670;2023-04-01T03:41:12;9.15;;;1.75;;
41711;SDS011;27399;51.516;13.670;2023-04-01T03:43:42;6.00;;;1.88;;
41711;SDS011;27399;51.516;13.670;2023-04-01T03:46:08;1.83;;;1.00;;
41711;SDS011;27399;51.516;13.670;2023-04-01T03:48:34;3.33;;;1.13;;
41711;SDS011;27399;51.516;13.670;2023-04-01T03:51:00;7.10;;;1.20;;
41711;SDS011;27399;51.516;13.670;2023-04-01T03:53:25;6.38;;;1.13;;
41711;SDS011;27399;51.516;13.670;2023-04-01T03:55:52;5.50;;;0.98;;
41711;SDS011;27399;51.516;13.670;2023-04-01T03:58:18;4.38;;;0.88;;
41711;SDS011;27399;51.516;13.670;2023-04-01T04:00:43;2.22;;;0.90;;
41711;SDS011;27399;51.516;13.670;2023-04-01T04:03:09;2.08;;;1.20;;
41711;SDS011;27399;51.516;13.670;2023-04-01T04:05:35;2.72;;;1.67;;
41711;SDS011;27399;51.516;13.670;2023-04-01T04:08:00;3.10;;;0.93;;
41711;SDS011;27399;51.516;13.670;2023-04-01T04:10:26;8.38;;;1.60;;
41711;SDS011;27399;51.516;13.670;2023-04-01T04:12:54;2.83;;;1.10;;
41711;SDS011;27399;51.516;13.670;2023-04-01T04:15:19;2.60;;;1.02;;
41711;SDS011;27399;51.516;13.670;2023-04-01T04:17:45;5.32;;;1.10;;
41711;SDS011;27399;51.516;13.670;2023-04-01T04:20:11;4.35;;;0.95;;
41711;SDS011;27399;51.516;13.670;2023-04-01T04:22:37;4.57;;;0.98;;
41711;SDS011;27399;51.516;13.670;2023-04-01T04:25:02;3.17;;;0.90;;
41711;SDS011;27399;51.516;13.670;2023-04-01T04:27:28;3.15;;;1.08;;
41711;SDS011;27399;51.516;13.670;2023-04-01T04:29:54;3.38;;;1.05;;
41711;SDS011;27399;51.516;13.670;2023-04-01T04:32:19;5.95;;;0.93;;
41711;SDS011;27399;51.516;13.670;2023-04-01T04:34:45;7.15;;;1.27;;
41711;SDS011;27399;51.516;13.670;2023-04-01T04:37:10;15.15;;;1.40;;
41711;SDS011;27399;51.516;13.670;2023-04-01T04:39:36;4.60;;;0.95;;
41711;SDS011;27399;51.516;13.670;2023-04-01T04:42:02;2.50;;;0.90;;
41711;SDS011;27399;51.516;13.670;2023-04-01T04:44:27;3.50;;;1.10;;
41711;SDS011;27399;51.516;13.670;2023-04-01T04:46:53;3.60;;;0.90;;
41711;SDS011;27399;51.516;13.670;2023-04-01T04:49:19;2.33;;;0.73;;
41711;SDS011;27399;51.516;13.670;2023-04-01T04:51:44;8.88;;;1.13;;
41711;SDS011;27399;51.516;13.670;2023-04-01T04:54:10;3.70;;;1.55;;
41711;SDS011;27399;51.516;13.670;2023-04-01T04:56:36;3.92;;;1.23;;
41711;SDS011;27399;51.516;13.670;2023-04-01T04:59:01;7.10;;;1.05;;
41711;SDS011;27399;51.516;13.670;2023-04-01T05:01:27;5.05;;;1.00;;
41711;SDS011;27399;51.516;13.670;2023-04-01T05:03:53;9.23;;;1.35;;
41711;SDS011;27399;51.516;13.670;2023-04-01T05:06:19;2.60;;;0.80;;
41711;SDS011;27399;51.516;13.670;2023-04-01T05:08:44;4.18;;;1.10;;
41711;SDS011;27399;51.516;13.670;2023-04-01T05:11:15;4.57;;;1.52;;
41711;SDS011;27399;51.516;13.670;2023-04-01T05:13:44;4.25;;;1.00;;
41711;SDS011;27399;51.516;13.670;2023-04-01T05:16:11;5.53;;;1.00;;
41711;SDS011;27399;51.516;13.670;2023-04-01T05:18:39;7.40;;;1.80;;
41711;SDS011;27399;51.516;13.670;2023-04-01T05:21:06;9.80;;;0.98;;
41711;SDS011;27399;51.516;13.670;2023-04-01T05:23:33;6.85;;;1.35;;
41711;SDS011;27399;51.516;13.670;2023-04-01T05:26:06;3.28;;;0.90;;
41711;SDS011;27399;51.516;13.670;2023-04-01T05:28:34;2.83;;;0.80;;
41711;SDS011;27399;51.516;13.670;2023-04-01T05:31:00;5.95;;;1.20;;
41711;SDS011;27399;51.516;13.670;2023-04-01T05:33:27;5.70;;;1.25;;
41711;SDS011;27399;51.516;13.670;2023-04-01T05:35:53;5.18;;;1.95;;
41711;SDS011;27399;51.516;13.670;2023-04-01T05:38:19;7.03;;;1.25;;
41711;SDS011;27399;51.516;13.670;2023-04-01T05:40:45;5.72;;;1.02;;
41711;SDS011;27399;51.516;13.670;2023-04-01T05:43:11;4.97;;;1.30;;
41711;SDS011;27399;51.516;13.670;2023-04-01T05:45:36;5.05;;;1.60;;
41711;SDS011;27399;51.516;13.670;2023-04-01T05:48:05;2.45;;;0.70;;
41711;SDS011;27399;51.516;13.670;2023-04-01T05:50:31;4.97;;;0.93;;
41711;SDS011;27399;51.516;13.670;2023-04-01T05:52:56;5.50;;;1.23;;
41711;SDS011;27399;51.516;13.670;2023-04-01T05:55:22;3.85;;;1.10;;
41711;SDS011;27399;51.516;13.670;2023-04-01T05:57:48;3.65;;;1.27;;
41711;SDS011;27399;51.516;13.670;2023-04-01T06:00:15;5.10;;;1.00;;
41711;SDS011;27399;51.516;13.670;2023-04-01T06:02:42;2.83;;;0.90;;
41711;SDS011;27399;51.516;13.670;2023-04-01T06:08:30;2.50;;;0.75;;
41711;SDS011;27399;51.516;13.670;2023-04-01T06:35:54;5.25;;;2.08;;
41711;SDS011;27399;51.516;13.670;2023-04-01T06:41:22;2.53;;;0.77;;
41711;SDS011;27399;51.516;13.670;2023-04-01T06:46:57;2.80;;;1.20;;
41711;SDS011;27399;51.516;13.670;2023-04-01T06:54:49;5.15;;;0.90;;
41711;SDS011;27399;51.516;13.670;2023-04-01T06:57:39;4.35;;;1.05;;
41711;SDS011;27399;51.516;13.670;2023-04-01T07:00:13;3.30;;;1.08;;
41711;SDS011;27399;51.516;13.670;2023-04-01T07:02:48;2.67;;;0.70;;
41711;SDS011;27399;51.516;13.670;2023-04-01T07:05:20;3.97;;;0.70;;
41711;SDS011;27399;51.516;13.670;2023-04-01T07:07:49;2.05;;;0.85;;
41711;SDS011;27399;51.516;13.670;2023-04-01T07:12:56;1.35;;;0.77;;
41711;SDS011;27399;51.516;13.670;2023-04-01T07:15:30;4.78;;;0.80;;
41711;SDS011;27399;51.516;13.670;2023-04-01T07:18:23;2.00;;;0.70;;
41711;SDS011;27399;51.516;13.670;2023-04-01T07:20:53;1.58;;;0.80;;
41711;SDS011;27399;51.516;13.670;2023-04-01T07:23:24;4.35;;;0.77;;
41711;SDS011;27399;51.516;13.670;2023-04-01T07:26:04;5.53;;;1.20;;
41711;SDS011;27399;51.516;13.670;2023-04-01T07:28:58;5.43;;;1.05;;
41711;SDS011;27399;51.516;13.670;2023-04-01T07:34:09;3.45;;;0.82;;
41711;SDS011;27399;51.516;13.670;2023-04-01T07:37:03;5.60;;;0.85;;
41711;SDS011;27399;51.516;13.670;2023-04-01T07:50:40;3.75;;;0.98;;
41711;SDS011;27399;51.516;13.670;2023-04-01T07:56:28;4.80;;;1.00;;
41711;SDS011;27399;51.516;13.670;2023-04-01T07:59:26;4.95;;;0.85;;
41711;SDS011;27399;51.516;13.670;2023-04-01T08:08:05;3.20;;;1.00;;
41711;SDS011;27399;51.516;13.670;2023-04-01T08:13:34;4.50;;;0.90;;
41711;SDS011;27399;51.516;13.670;2023-04-01T08:21:56;7.28;;;1.05;;
41711;SDS011;27399;51.516;13.670;2023-04-01T08:24:42;6.32;;;1.23;;
41711;SDS011;27399;51.516;13.670;2023-04-01T08:27:11;4.97;;;1.00;;
41711;SDS011;27399;51.516;13.670;2023-04-01T08:32:25;3.83;;;0.88;;
41711;SDS011;27399;51.516;13.670;2023-04-01T08:37:52;6.07;;;0.90;;
41711;SDS011;27399;51.516;13.670;2023-04-01T08:43:33;1.63;;;0.80;;
41711;SDS011;27399;51.516;13.670;2023-04-01T08:49:00;3.78;;;1.23;;
41711;SDS011;27399;51.516;13.670;2023-04-01T08:51:51;5.90;;;1.02;;
41711;SDS011;27399;51.516;13.670;2023-04-01T08:57:24;3.38;;;0.88;;
41711;SDS011;27399;51.516;13.670;2023-04-01T09:08:29;3.20;;;0.80;;
41711;SDS011;27399;51.516;13.670;2023-04-01T09:11:03;4.93;;;0.73;;
41711;SDS011;27399;51.516;13.670;2023-04-01T09:16:42;3.03;;;0.73;;
41711;SDS011;27399;51.516;13.670;2023-04-01T09:24:40;2.55;;;0.98;;
41711;SDS011;27399;51.516;13.670;2023-04-01T09:27:43;6.05;;;1.20;;
41711;SDS011;27399;51.516;13.670;2023-04-01T09:30:46;1.65;;;0.80;;
41711;SDS011;27399;51.516;13.670;2023-04-01T09:39:16;2.75;;;1.05;;
41711;SDS011;27399;51.516;13.670;2023-04-01T09:41:57;2.05;;;0.80;;
41711;SDS011;27399;51.516;13.670;2023-04-01T09:44:36;2.55;;;0.75;;
41711;SDS011;27399;51.516;13.670;2023-04-01T09:49:54;3.97;;;0.60;;
41711;SDS011;27399;51.516;13.670;2023-04-01T10:01:06;2.67;;;0.73;;
41711;SDS011;27399;51.516;13.670;2023-04-01T10:32:11;3.67;;;0.75;;
41711;SDS011;27399;51.516;13.670;2023-04-01T10:43:28;3.30;;;1.30;;
41711;SDS011;27399;51.516;13.670;2023-04-01T10:58:03;5.07;;;0.60;;
41711;SDS011;27399;51.516;13.670;2023-04-01T11:01:05;2.90;;;0.68;;
41711;SDS011;27399;51.516;13.670;2023-04-01T11:12:09;1.10;;;0.60;;
41711;SDS011;27399;51.516;13.670;2023-04-01T11:20:22;5.25;;;1.33;;
41711;SDS011;27399;51.516;13.670;2023-04-01T11:26:13;4.03;;;0.80;;
41711;SDS011;27399;51.516;13.670;2023-04-01T11:40:11;3.33;;;1.63;;
41711;SDS011;27399;51.516;13.670;2023-04-01T11:45:27;4.13;;;1.88;;
41711;SDS011;27399;51.516;13.670;2023-04-01T12:02:05;6.70;;;3.17;;
41711;SDS011;27399;51.516;13.670;2023-04-01T12:18:53;13.63;;;6.65;;
41711;SDS011;27399;51.516;13.670;2023-04-01T12:24:06;24.45;;;12.75;;
41711;SDS011;27399;51.516;13.670;2023-04-01T12:32:31;15.93;;;7.20;;
41711;SDS011;27399;51.516;13.670;2023-04-01T12:35:17;10.60;;;5.68;;
41711;SDS011;27399;51.516;13.670;2023-04-01T12:38:14;4.55;;;1.65;;
41711;SDS011;27399;51.516;13.670;2023-04-01T13:12:01;3.65;;;3.10;;
41711;SDS011;27399;51.516;13.670;2023-04-01T13:14:54;7.07;;;1.80;;
41711;SDS011;27399;51.516;13.670;2023-04-01T13:20:16;1.70;;;0.63;;
41711;SDS011;27399;51.516;13.670;2023-04-01T13:25:31;1.55;;;0.95;;
41711;SDS011;27399;51.516;13.670;2023-04-01T13:28:27;2.80;;;1.17;;
41711;SDS011;27399;51.516;13.670;2023-04-01T13:33:40;6.43;;;1.10;;
41711;SDS011;27399;51.516;13.670;2023-04-01T13:36:28;2.78;;;1.45;;
41711;SDS011;27399;51.516;13.670;2023-04-01T13:38:59;5.53;;;1.65;;
41711;SDS011;27399;51.516;13.670;2023-04-01T13:49:31;2.30;;;1.27;;
41711;SDS011;27399;51.516;13.670;2023-04-01T14:01:00;2.25;;;1.00;;
41711;SDS011;27399;51.516;13.670;2023-04-01T14:03:39;2.65;;;1.30;;
41711;SDS011;27399;51.516;13.670;2023-04-01T14:06:33;1.40;;;0.90;;
41711;SDS011;27399;51.516;13.670;2023-04-01T14:09:08;3.00;;;0.80;;
41711;SDS011;27399;51.516;13.670;2023-04-01T14:20:13;3.63;;;0.80;;
41711;SDS011;27399;51.516;13.670;2023-04-01T14:33:46;4.73;;;2.47;;
41711;SDS011;27399;51.516;13.670;2023-04-01T14:42:18;5.90;;;2.72;;
41711;SDS011;27399;51.516;13.670;2023-04-01T14:45:07;7.90;;;2.15;;
41711;SDS011;27399;51.516;13.670;2023-04-01T14:50:44;3.13;;;1.60;;
41711;SDS011;27399;51.516;13.670;2023-04-01T14:53:34;2.33;;;0.98;;
41711;SDS011;27399;51.516;13.670;2023-04-01T14:58:45;2.28;;;0.95;;
41711;SDS011;27399;51.516;13.670;2023-04-01T15:01:25;3.45;;;1.30;;
41711;SDS011;27399;51.516;13.670;2023-04-01T15:07:01;3.00;;;0.90;;
41711;SDS011;27399;51.516;13.670;2023-04-01T15:12:26;5.28;;;2.55;;
41711;SDS011;27399;51.516;13.670;2023-04-01T15:17:43;5.38;;;2.40;;
41711;SDS011;27399;51.516;13.670;2023-04-01T15:31:29;1.48;;;1.13;;
41711;SDS011;27399;51.516;13.670;2023-04-01T15:34:19;1.00;;;0.80;;
41711;SDS011;27399;51.516;13.670;2023-04-01T15:40:01;1.35;;;1.05;;
41711;SDS011;27399;51.516;13.670;2023-04-01T15:48:18;4.75;;;1.88;;
41711;SDS011;27399;51.516;13.670;2023-04-01T15:51:02;3.60;;;1.67;;
41711;SDS011;27399;51.516;13.670;2023-04-01T15:53:36;2.08;;;1.80;;
41711;SDS011;27399;51.516;13.670;2023-04-01T15:59:01;2.17;;;1.30;;
41711;SDS011;27399;51.516;13.670;2023-04-01T16:02:27;2.03;;;1.60;;
41711;SDS011;27399;51.516;13.670;2023-04-01T16:04:42;3.83;;;1.30;;
41711;SDS011;27399;51.516;13.670;2023-04-01T16:13:12;3.35;;;1.45;;
41711;SDS011;27399;51.516;13.670;2023-04-01T16:29:43;4.05;;;2.20;;
41711;SDS011;27399;51.516;13.670;2023-04-01T16:37:43;4.55;;;3.08;;
41711;SDS011;27399;51.516;13.670;2023-04-01T16:43:06;4.75;;;2.40;;
41711;SDS011;27399;51.516;13.670;2023-04-01T16:51:44;15.88;;;6.68;;
41711;SDS011;27399;51.516;13.670;2023-04-01T16:56:50;11.00;;;5.32;;
41711;SDS011;27399;51.516;13.670;2023-04-01T17:02:23;4.82;;;3.00;;
41711;SDS011;27399;51.516;13.670;2023-04-01T17:07:39;3.15;;;2.30;;
41711;SDS011;27399;51.516;13.670;2023-04-01T17:10:19;8.05;;;2.03;;
41711;SDS011;27399;51.516;13.670;2023-04-01T17:21:02;3.45;;;2.10;;
41711;SDS011;27399;51.516;13.670;2023-04-01T17:23:52;3.58;;;1.88;;
41711;SDS011;27399;51.516;13.670;2023-04-01T17:26:32;2.42;;;1.88;;
41711;SDS011;27399;51.516;13.670;2023-04-01T17:29:10;3.23;;;1.60;;
41711;SDS011;27399;51.516;13.670;2023-04-01T17:31:45;3.92;;;1.75;;
41711;SDS011;27399;51.516;13.670;2023-04-01T17:40:12;3.72;;;2.00;;
41711;SDS011;27399;51.516;13.670;2023-04-01T17:42:56;5.55;;;1.88;;
41711;SDS011;27399;51.516;13.670;2023-04-01T17:45:53;2.08;;;1.73;;
41711;SDS011;27399;51.516;13.670;2023-04-01T17:51:01;2.55;;;1.73;;
41711;SDS011;27399;51.516;13.670;2023-04-01T18:04:24;4.10;;;2.90;;
41711;SDS011;27399;51.516;13.670;2023-04-01T18:06:59;2.10;;;1.90;;
41711;SDS011;27399;51.516;13.670;2023-04-01T18:21:33;3.80;;;2.45;;
41711;SDS011;27399;51.516;13.670;2023-04-01T18:23:37;2.75;;;2.00;;
41711;SDS011;27399;51.516;13.670;2023-04-01T18:26:20;3.13;;;1.95;;
41711;SDS011;27399;51.516;13.670;2023-04-01T18:28:57;3.42;;;2.45;;
41711;SDS011;27399;51.516;13.670;2023-04-01T18:31:36;2.30;;;2.00;;
41711;SDS011;27399;51.516;13.670;2023-04-01T18:34:15;2.42;;;1.75;;
41711;SDS011;27399;51.516;13.670;2023-04-01T18:37:00;2.13;;;1.85;;
41711;SDS011;27399;51.516;13.670;2023-04-01T18:39:42;2.75;;;1.83;;
41711;SDS011;27399;51.516;13.670;2023-04-01T18:42:38;3.20;;;2.10;;
41711;SDS011;27399;51.516;13.670;2023-04-01T18:45:21;2.55;;;1.98;;
41711;SDS011;27399;51.516;13.670;2023-04-01T18:50:43;3.30;;;2.20;;
41711;SDS011;27399;51.516;13.670;2023-04-01T18:53:29;4.50;;;2.53;;
41711;SDS011;27399;51.516;13.670;2023-04-01T18:56:05;4.22;;;2.60;;
41711;SDS011;27399;51.516;13.670;2023-04-01T18:59:14;9.35;;;3.08;;
41711;SDS011;27399;51.516;13.670;2023-04-01T19:01:33;8.05;;;3.42;;
41711;SDS011;27399;51.516;13.670;2023-04-01T19:07:19;8.85;;;5.10;;
41711;SDS011;27399;51.516;13.670;2023-04-01T19:09:47;9.52;;;5.45;;
41711;SDS011;27399;51.516;13.670;2023-04-01T19:12:27;9.35;;;6.10;;
41711;SDS011;27399;51.516;13.670;2023-04-01T19:23:38;11.80;;;6.18;;
41711;SDS011;27399;51.516;13.670;2023-04-01T19:26:25;13.02;;;7.43;;
41711;SDS011;27399;51.516;13.670;2023-04-01T19:31:59;11.52;;;6.20;;
41711;SDS011;27399;51.516;13.670;2023-04-01T19:45:55;9.18;;;5.47;;
41711;SDS011;27399;51.516;13.670;2023-04-01T19:51:45;8.73;;;5.07;;
41711;SDS011;27399;51.516;13.670;2023-04-01T19:57:17;6.57;;;4.30;;
41711;SDS011;27399;51.516;13.670;2023-04-01T20:05:29;8.02;;;4.78;;
41711;SDS011;27399;51.516;13.670;2023-04-01T20:08:44;6.30;;;4.53;;
41711;SDS011;27399;51.516;13.670;2023-04-01T20:10:49;4.88;;;3.50;;
41711;SDS011;27399;51.516;13.670;2023-04-01T20:13:37;7.05;;;4.57;;
41711;SDS011;27399;51.516;13.670;2023-04-01T20:16:28;5.95;;;4.00;;
41711;SDS011;27399;51.516;13.670;2023-04-01T20:19:13;5.95;;;3.63;;
41711;SDS011;27399;51.516;13.670;2023-04-01T20:26:39;5.03;;;3.35;;
41711;SDS011;27399;51.516;13.670;2023-04-01T20:37:30;5.40;;;3.22;;
41711;SDS011;27399;51.516;13.670;2023-04-01T20:40:14;7.15;;;3.35;;
41711;SDS011;27399;51.516;13.670;2023-04-01T20:46:01;5.25;;;3.40;;
41711;SDS011;27399;51.516;13.670;2023-04-01T20:48:54;5.40;;;3.60;;
41711;SDS011;27399;51.516;13.670;2023-04-01T20:51:53;3.28;;;2.42;;
41711;SDS011;27399;51.516;13.670;2023-04-01T20:54:41;4.18;;;2.92;;
41711;SDS011;27399;51.516;13.670;2023-04-01T20:57:29;3.83;;;2.45;;
41711;SDS011;27399;51.516;13.670;2023-04-01T21:11:22;2.70;;;2.17;;
41711;SDS011;27399;51.516;13.670;2023-04-01T21:33:30;2.25;;;1.95;;
41711;SDS011;27399;51.516;13.670;2023-04-01T21:36:31;2.83;;;2.17;;
41711;SDS011;27399;51.516;13.670;2023-04-01T22:06:46;3.60;;;2.55;;
41711;SDS011;27399;51.516;13.670;2023-04-01T22:12:11;2.90;;;2.25;;
41711;SDS011;27399;51.516;13.670;2023-04-01T22:14:55;4.30;;;3.10;;
41711;SDS011;27399;51.516;13.670;2023-04-01T22:17:50;5.22;;;2.22;;
41711;SDS011;27399;51.516;13.670;2023-04-01T22:31:41;3.13;;;2.50;;
41711;SDS011;27399;51.516;13.670;2023-04-01T22:36:53;5.18;;;3.10;;
41711;SDS011;27399;51.516;13.670;2023-04-01T22:39:38;7.07;;;2.50;;
41711;SDS011;27399;51.516;13.670;2023-04-01T22:50:40;6.13;;;3.85;;
41711;SDS011;27399;51.516;13.670;2023-04-01T22:56:21;4.85;;;3.20;;
41711;SDS011;27399;51.516;13.670;2023-04-01T22:59:10;7.47;;;3.83;;
41711;SDS011;27399;51.516;13.670;2023-04-01T23:01:45;5.40;;;3.70;;
41711;SDS011;27399;51.516;13.670;2023-04-01T23:04:16;5.57;;;3.63;;
41711;SDS011;27399;51.516;13.670;2023-04-01T23:06:50;4.78;;;2.85;;
41711;SDS011;27399;51.516;13.670;2023-04-01T23:09:23;5.15;;;3.30;;
41711;SDS011;27399;51.516;13.670;2023-04-01T23:11:55;5.35;;;4.05;;
41711;SDS011;27399;51.516;13.670;2023-04-01T23:14:30;3.72;;;2.75;;
41711;SDS011;27399;51.516;13.670;2023-04-01T23:17:04;4.50;;;3.40;;
41711;SDS011;27399;51.516;13.670;2023-04-01T23:19:47;4.25;;;2.75;;
41711;SDS011;27399;51.516;13.670;2023-04-01T23:22:26;4.45;;;2.97;;
41711;SDS011;27399;51.516;13.670;2023-04-01T23:33:10;4.75;;;2.83;;
41711;SDS011;27399;51.516;13.670;2023-04-01T23:38:30;3.10;;;2.65;;
41711;SDS011;27399;51.516;13.670;2023-04-01T23:40:58;4.85;;;2.70;;
41711;SDS011;27399;51.516;13.670;2023-04-01T23:45:52;7.43;;;2.90;;
41711;SDS011;27399;51.516;13.670;2023-04-01T23:48:21;6.65;;;2.95;;
41711;SDS011;27399;51.516;13.670;2023-04-01T23:50:57;4.03;;;2.83;;
41711;SDS011;27399;51.516;13.670;2023-04-01T23:53:29;5.65;;;2.92;;
41711;SDS011;27399;51.516;13.670;2023-04-01T23:55:57;5.63;;;3.05;;
41711;SDS011;27399;51.516;13.670;2023-04-01T23:58:24;6.75;;;2.85;;
